createdAt,value
2024-05-09T00:00:40.761Z,12.90
2024-05-09T00:03:10.398Z,12.90
2024-05-09T00:05:41.095Z,12.80
2024-05-09T00:08:10.046Z,12.80
2024-05-09T00:10:39.207Z,12.70
2024-05-09T00:13:08.366Z,12.70
2024-05-09T00:15:36.160Z,12.70
2024-05-09T00:18:05.551Z,12.70
2024-05-09T00:20:38.530Z,12.60
2024-05-09T00:23:09.478Z,12.60
2024-05-09T00:25:37.834Z,12.60
2024-05-09T00:28:05.432Z,12.60
2024-05-09T00:30:35.685Z,12.40
2024-05-09T00:33:06.526Z,12.40
2024-05-09T00:35:35.193Z,12.40
2024-05-09T00:38:02.588Z,12.40
2024-05-09T00:40:41.002Z,12.50
2024-05-09T00:43:14.608Z,12.40
2024-05-09T00:45:43.204Z,12.40
2024-05-09T00:48:14.359Z,12.50
2024-05-09T00:50:46.177Z,12.40
2024-05-09T00:53:15.768Z,12.40
2024-05-09T00:55:43.490Z,12.40
2024-05-09T00:58:15.314Z,12.30
2024-05-09T01:00:43.071Z,12.20
2024-05-09T01:03:12.512Z,12.20
2024-05-09T01:05:45.113Z,12.20
2024-05-09T01:08:15.808Z,12.10
2024-05-09T01:10:48.646Z,12.10
2024-05-09T01:13:18.252Z,12.10
2024-05-09T01:15:51.893Z,12.10
2024-05-09T01:18:24.818Z,12.10
2024-05-09T01:20:52.098Z,12.10
2024-05-09T01:23:19.240Z,12.10
2024-05-09T01:25:46.919Z,12.10
2024-05-09T01:28:15.309Z,12.10
2024-05-09T01:30:42.474Z,12.00
2024-05-09T01:33:11.392Z,12.00
2024-05-09T01:35:42.039Z,12.00
2024-05-09T01:38:13.128Z,12.00
2024-05-09T01:40:40.707Z,12.00
2024-05-09T01:43:09.245Z,12.00
2024-05-09T01:45:37.908Z,12.10
2024-05-09T01:48:05.681Z,12.00
2024-05-09T01:50:39.119Z,12.00
2024-05-09T01:53:10.356Z,12.10
2024-05-09T01:55:38.045Z,12.10
2024-05-09T01:58:05.359Z,12.10
2024-05-09T02:00:39.289Z,12.10
2024-05-09T02:03:16.453Z,12.20
2024-05-09T02:05:47.132Z,12.20
2024-05-09T02:08:17.190Z,12.20
2024-05-09T02:10:45.449Z,12.10
2024-05-09T02:13:13.430Z,12.10
2024-05-09T02:15:40.475Z,12.10
2024-05-09T02:18:08.697Z,12.10
2024-05-09T02:20:38.211Z,12.10
2024-05-09T02:23:06.775Z,12.10
2024-05-09T02:25:34.463Z,12.10
2024-05-09T02:28:01.890Z,12.10
2024-05-09T02:30:38.245Z,12.10
2024-05-09T02:33:09.848Z,12.10
2024-05-09T02:35:38.634Z,12.10
2024-05-09T02:38:05.859Z,12.10
2024-05-09T02:40:37.183Z,12.00
2024-05-09T02:43:07.890Z,12.00
2024-05-09T02:45:35.515Z,12.00
2024-05-09T02:48:02.995Z,11.90
2024-05-09T02:50:37.284Z,11.90
2024-05-09T02:53:11.293Z,11.90
2024-05-09T02:55:39.110Z,11.90
2024-05-09T02:58:09.859Z,12.00
2024-05-09T03:00:40.797Z,11.90
2024-05-09T03:03:13.360Z,11.90
2024-05-09T03:05:46.199Z,11.90
2024-05-09T03:08:13.907Z,11.90
2024-05-09T03:10:41.103Z,12.00
2024-05-09T03:13:09.111Z,12.00
2024-05-09T03:15:36.705Z,12.00
2024-05-09T03:18:05.542Z,12.00
2024-05-09T03:20:35.476Z,11.90
2024-05-09T03:23:08.657Z,11.80
2024-05-09T03:25:36.964Z,11.80
2024-05-09T03:28:04.335Z,11.80
2024-05-09T03:30:39.840Z,11.80
2024-05-09T03:33:15.680Z,11.80
2024-05-09T03:35:46.921Z,11.80
2024-05-09T03:38:14.398Z,11.80
2024-05-09T03:40:50.842Z,11.90
2024-05-09T03:43:19.881Z,11.90
2024-05-09T03:45:48.633Z,12.00
2024-05-09T03:48:16.114Z,11.90
2024-05-09T03:50:43.569Z,11.90
2024-05-09T03:53:12.525Z,11.90
2024-05-09T03:55:39.962Z,11.80
2024-05-09T03:58:08.278Z,11.80
2024-05-09T04:00:38.939Z,11.80
2024-05-09T04:03:10.814Z,11.70
2024-05-09T04:05:41.605Z,11.70
2024-05-09T04:08:10.109Z,11.60
2024-05-09T04:10:37.718Z,11.70
2024-05-09T04:13:05.098Z,11.70
2024-05-09T04:15:32.487Z,11.70
2024-05-09T04:18:00.174Z,11.80
2024-05-09T04:20:36.739Z,11.80
2024-05-09T04:23:09.012Z,11.80
2024-05-09T04:25:37.022Z,11.80
2024-05-09T04:28:04.440Z,11.90
2024-05-09T04:30:37.946Z,11.90
2024-05-09T04:33:10.462Z,11.90
2024-05-09T04:35:39.729Z,11.90
2024-05-09T04:38:07.085Z,11.90
2024-05-09T04:40:36.680Z,11.90
2024-05-09T04:43:13.782Z,11.80
2024-05-09T04:45:41.158Z,11.90
2024-05-09T04:48:08.980Z,11.80
2024-05-09T04:50:38.811Z,11.80
2024-05-09T04:53:09.991Z,11.80
2024-05-09T04:55:38.677Z,11.80
2024-05-09T04:58:09.082Z,11.90
2024-05-09T05:00:38.991Z,11.90
2024-05-09T05:03:10.638Z,11.90
2024-05-09T05:05:43.915Z,11.90
2024-05-09T05:08:17.146Z,11.90
2024-05-09T05:10:46.118Z,11.80
2024-05-09T05:13:20.153Z,11.80
2024-05-09T05:15:49.450Z,11.80
2024-05-09T05:18:17.043Z,11.80
2024-05-09T05:20:44.925Z,11.90
2024-05-09T05:23:14.386Z,11.90
2024-05-09T05:25:42.421Z,11.90
2024-05-09T05:28:09.685Z,11.90
2024-05-09T05:30:38.335Z,12.00
2024-05-09T05:33:06.812Z,12.10
2024-05-09T05:35:34.997Z,12.10
2024-05-09T05:38:06.649Z,12.10
2024-05-09T05:40:37.229Z,12.10
2024-05-09T05:43:10.426Z,12.10
2024-05-09T05:45:39.120Z,12.20
2024-05-09T05:48:07.998Z,12.30
2024-05-09T05:50:37.635Z,12.30
2024-05-09T05:53:07.947Z,12.30
2024-05-09T05:55:36.618Z,12.30
2024-05-09T05:58:04.029Z,12.30
2024-05-09T06:00:38.254Z,12.40
2024-05-09T06:03:08.860Z,12.50
2024-05-09T06:05:37.415Z,12.50
2024-05-09T06:08:09.414Z,12.60
2024-05-09T06:10:41.263Z,12.70
2024-05-09T06:13:13.115Z,12.70
2024-05-09T06:15:44.719Z,12.80
2024-05-09T06:18:15.492Z,13.20
2024-05-09T06:20:46.211Z,13.30
2024-05-09T06:23:17.146Z,13.40
2024-05-09T06:25:46.717Z,13.50
2024-05-09T06:28:19.848Z,13.60
2024-05-09T06:30:50.307Z,13.60
2024-05-09T06:33:19.716Z,13.70
2024-05-09T06:35:49.671Z,14.00
2024-05-09T06:38:20.022Z,14.30
2024-05-09T06:40:50.169Z,14.50
2024-05-09T06:43:20.527Z,14.50
2024-05-09T06:45:49.975Z,14.30
2024-05-09T06:48:24.040Z,14.30
2024-05-09T06:50:54.435Z,14.30
2024-05-09T06:53:26.157Z,14.40
2024-05-09T06:55:56.174Z,14.40
2024-05-09T06:58:26.604Z,14.40
2024-05-09T07:00:55.779Z,14.50
2024-05-09T07:03:25.936Z,14.50
2024-05-09T07:05:56.700Z,14.50
2024-05-09T07:08:27.375Z,14.50
2024-05-09T07:10:57.076Z,14.60
2024-05-09T07:13:28.623Z,14.70
2024-05-09T07:15:58.871Z,14.90
2024-05-09T07:18:30.711Z,15.00
2024-05-09T07:21:03.007Z,15.30
2024-05-09T07:23:34.243Z,15.60
2024-05-09T07:26:04.976Z,15.90
2024-05-09T07:28:35.442Z,16.00
2024-05-09T07:31:06.564Z,16.00
2024-05-09T07:33:36.479Z,16.00
2024-05-09T07:36:07.374Z,16.00
2024-05-09T07:38:37.875Z,15.90
2024-05-09T07:41:07.530Z,15.90
2024-05-09T07:43:37.605Z,15.80
2024-05-09T07:47:03.841Z,15.80
2024-05-09T07:50:35.608Z,16.00
2024-05-09T07:53:16.865Z,16.20
2024-05-09T07:54:37.728Z,15.80
2024-05-09T07:57:08.298Z,15.90
2024-05-09T07:59:38.474Z,16.30
2024-05-09T08:02:09.620Z,16.80
2024-05-09T08:04:40.716Z,17.30
2024-05-09T08:07:11.178Z,17.70
2024-05-09T08:09:42.480Z,18.10
2024-05-09T08:12:15.666Z,17.80
2024-05-09T08:14:46.139Z,17.90
2024-05-09T08:17:16.639Z,18.20
2024-05-09T08:19:47.286Z,18.90
2024-05-09T08:22:20.213Z,19.40
2024-05-09T08:24:50.814Z,19.40
2024-05-09T08:27:21.135Z,18.80
2024-05-09T08:29:51.494Z,18.50
2024-05-09T08:32:21.663Z,18.40
2024-05-09T08:34:52.705Z,18.40
2024-05-09T08:37:26.028Z,18.50
2024-05-09T08:40:00.923Z,19.20
2024-05-09T08:42:39.952Z,19.70
2024-05-09T08:45:12.671Z,20.20
2024-05-09T08:47:42.976Z,20.40
2024-05-09T08:50:28.542Z,20.40
2024-05-09T08:53:05.722Z,20.50
2024-05-09T08:55:39.431Z,19.90
2024-05-09T08:58:18.669Z,19.10
2024-05-09T09:00:50.128Z,18.60
2024-05-09T09:03:24.012Z,18.70
2024-05-09T09:06:17.663Z,19.00
2024-05-09T09:08:48.545Z,19.50
2024-05-09T09:11:20.129Z,20.20
2024-05-09T09:13:50.144Z,20.60
2024-05-09T09:16:20.903Z,20.90
2024-05-09T09:18:53.318Z,20.70
2024-05-09T09:21:24.504Z,20.30
2024-05-09T09:23:57.697Z,20.70
2024-05-09T09:26:28.415Z,20.90
2024-05-09T09:29:05.468Z,20.80
2024-05-09T09:31:35.982Z,20.70
2024-05-09T09:34:10.779Z,20.20
2024-05-09T09:36:44.649Z,19.70
2024-05-09T09:39:18.456Z,20.20
2024-05-09T09:41:52.289Z,20.50
2024-05-09T09:44:23.688Z,20.50
2024-05-09T09:46:58.598Z,20.30
2024-05-09T09:49:38.332Z,20.40
2024-05-09T09:52:11.319Z,20.30
2024-05-09T09:54:44.171Z,20.30
2024-05-09T09:57:14.414Z,20.20
2024-05-09T09:59:47.901Z,20.90
2024-05-09T10:02:18.731Z,20.90
2024-05-09T10:04:49.274Z,20.60
2024-05-09T10:07:21.703Z,20.60
2024-05-09T10:09:52.218Z,20.70
2024-05-09T10:12:23.963Z,21.10
2024-05-09T10:14:56.432Z,20.90
2024-05-09T10:17:26.915Z,20.80
2024-05-09T10:20:14.762Z,21.00
2024-05-09T10:22:52.199Z,21.70
2024-05-09T10:25:22.717Z,22.40
2024-05-09T10:28:01.881Z,23.00
2024-05-09T10:30:35.950Z,23.30
2024-05-09T10:33:12.291Z,23.10
2024-05-09T10:35:52.512Z,23.20
2024-05-09T10:38:22.939Z,23.40
2024-05-09T10:40:58.966Z,23.30
2024-05-09T10:43:30.214Z,23.30
2024-05-09T10:46:00.630Z,24.00
2024-05-09T10:48:31.426Z,23.80
2024-05-09T10:51:02.734Z,23.90
2024-05-09T10:53:34.341Z,23.90
2024-05-09T10:56:05.200Z,23.80
2024-05-09T10:58:36.519Z,24.00
2024-05-09T11:01:08.344Z,24.40
2024-05-09T11:03:39.775Z,24.70
2024-05-09T11:06:11.869Z,25.20
2024-05-09T11:08:42.390Z,24.90
2024-05-09T11:11:12.277Z,25.00
2024-05-09T11:13:44.409Z,24.90
2024-05-09T11:16:22.318Z,24.60
2024-05-09T11:19:00.063Z,24.80
2024-05-09T11:21:30.507Z,25.70
2024-05-09T11:24:00.983Z,25.50
2024-05-09T11:26:33.568Z,25.60
2024-05-09T11:29:04.356Z,26.10
2024-05-09T11:31:35.110Z,26.10
2024-05-09T11:34:07.294Z,26.30
2024-05-09T11:36:37.457Z,26.40
2024-05-09T11:39:08.387Z,26.80
2024-05-09T11:41:38.682Z,27.00
2024-05-09T11:44:13.070Z,26.70
2024-05-09T11:46:45.410Z,25.90
2024-05-09T11:49:16.787Z,24.90
2024-05-09T11:51:47.467Z,24.40
2024-05-09T11:54:19.301Z,24.00
2024-05-09T11:56:49.797Z,23.90
2024-05-09T11:59:20.474Z,23.90
2024-05-09T12:01:50.793Z,23.50
2024-05-09T12:04:21.485Z,23.50
2024-05-09T12:06:48.807Z,23.70
2024-05-09T12:09:15.999Z,24.40
2024-05-09T12:11:43.747Z,25.10
2024-05-09T12:14:11.138Z,25.50
2024-05-09T12:16:38.722Z,25.60
2024-05-09T12:19:09.550Z,25.30
2024-05-09T12:21:36.874Z,25.00
2024-05-09T12:24:04.236Z,24.70
2024-05-09T12:26:31.584Z,24.20
2024-05-09T12:28:58.718Z,23.50
2024-05-09T12:31:25.836Z,22.70
2024-05-09T12:33:54.778Z,22.60
2024-05-09T12:36:22.187Z,22.20
2024-05-09T12:38:50.217Z,22.10
2024-05-09T12:41:17.354Z,22.40
2024-05-09T12:43:44.528Z,22.60
2024-05-09T12:46:14.613Z,22.30
2024-05-09T12:48:42.143Z,21.90
2024-05-09T12:51:09.446Z,21.70
2024-05-09T12:53:36.692Z,21.60
2024-05-09T12:56:05.454Z,21.60
2024-05-09T12:58:33.320Z,22.00
2024-05-09T13:01:00.761Z,22.00
2024-05-09T13:03:28.126Z,21.90
2024-05-09T13:05:55.488Z,21.80
2024-05-09T13:08:22.856Z,21.70
2024-05-09T13:10:50.529Z,21.60
2024-05-09T13:13:17.734Z,21.90
2024-05-09T13:15:45.031Z,22.00
2024-05-09T13:18:12.447Z,22.40
2024-05-09T13:20:39.538Z,22.60
2024-05-09T13:23:08.291Z,22.70
2024-05-09T13:25:37.376Z,22.80
2024-05-09T13:28:06.339Z,22.80
2024-05-09T13:30:39.883Z,22.90
2024-05-09T13:33:11.946Z,22.90
2024-05-09T13:35:45.475Z,23.00
2024-05-09T13:38:16.784Z,22.70
2024-05-09T13:40:44.052Z,22.50
2024-05-09T13:43:11.575Z,22.20
2024-05-09T13:45:38.873Z,22.00
2024-05-09T13:48:07.225Z,21.80
2024-05-09T13:50:36.611Z,21.50
2024-05-09T13:53:07.025Z,21.40
2024-05-09T13:55:37.715Z,21.30
2024-05-09T13:58:05.413Z,21.30
2024-05-09T14:00:43.802Z,21.10
2024-05-09T14:03:16.244Z,20.80
2024-05-09T14:05:44.464Z,20.50
2024-05-09T14:08:12.055Z,20.30
2024-05-09T14:10:44.766Z,19.90
2024-05-09T14:13:13.090Z,19.60
2024-05-09T14:15:41.013Z,19.50
2024-05-09T14:18:12.665Z,19.40
2024-05-09T14:20:41.738Z,19.30
2024-05-09T14:23:09.163Z,19.20
2024-05-09T14:25:40.368Z,19.20
2024-05-09T14:28:10.148Z,19.10
2024-05-09T14:30:38.704Z,19.10
2024-05-09T14:33:07.508Z,19.00
2024-05-09T14:35:37.818Z,18.90
2024-05-09T14:38:06.263Z,18.90
2024-05-09T14:40:40.857Z,18.90
2024-05-09T14:43:15.573Z,19.00
2024-05-09T14:45:44.043Z,19.20
2024-05-09T14:48:12.266Z,19.20
2024-05-09T14:50:40.796Z,19.20
2024-05-09T14:53:13.396Z,19.20
2024-05-09T14:55:42.910Z,19.10
2024-05-09T14:58:12.352Z,19.00
2024-05-09T15:00:46.259Z,18.90
2024-05-09T15:03:17.587Z,18.80
2024-05-09T15:05:45.419Z,18.50
2024-05-09T15:08:12.669Z,18.40
2024-05-09T15:10:40.300Z,18.30
2024-05-09T15:13:09.824Z,18.10
2024-05-09T15:15:38.610Z,18.00
2024-05-09T15:18:06.512Z,18.10
2024-05-09T15:20:36.745Z,17.90
2024-05-09T15:23:06.949Z,17.90
2024-05-09T15:25:35.516Z,17.90
2024-05-09T15:28:03.669Z,17.90
2024-05-09T15:30:33.187Z,17.90
2024-05-09T15:33:04.267Z,18.00
2024-05-09T15:35:32.052Z,18.00
2024-05-09T15:37:59.922Z,18.10
2024-05-09T15:40:35.881Z,18.10
2024-05-09T15:43:08.853Z,18.10
2024-05-09T15:45:37.404Z,18.30
2024-05-09T15:48:05.752Z,18.40
2024-05-09T15:50:39.289Z,18.50
2024-05-09T15:53:10.372Z,18.50
2024-05-09T15:55:39.281Z,18.60
2024-05-09T15:58:07.348Z,18.80
2024-05-09T16:00:39.575Z,18.90
2024-05-09T16:03:14.550Z,18.70
2024-05-09T16:05:46.513Z,18.70
2024-05-09T16:08:14.923Z,18.50
2024-05-09T16:10:44.680Z,18.20
2024-05-09T16:13:13.284Z,18.30
2024-05-09T16:15:40.848Z,18.30
2024-05-09T16:18:08.510Z,18.20
2024-05-09T16:20:40.223Z,18.30
2024-05-09T16:23:10.271Z,18.30
2024-05-09T16:25:38.090Z,18.40
2024-05-09T16:28:08.970Z,18.50
2024-05-09T16:30:38.872Z,18.50
2024-05-09T16:33:06.729Z,18.50
2024-05-09T16:35:34.988Z,18.50
2024-05-09T16:38:03.838Z,18.50
2024-05-09T16:40:37.858Z,18.50
2024-05-09T16:43:08.839Z,18.40
2024-05-09T16:45:37.216Z,18.40
2024-05-09T16:48:05.152Z,18.40
2024-05-09T16:50:34.803Z,18.30
2024-05-09T16:53:06.773Z,18.30
2024-05-09T16:55:35.121Z,18.10
2024-05-09T16:58:02.903Z,17.90
2024-05-09T17:00:39.415Z,17.90
2024-05-09T17:03:11.777Z,17.70
2024-05-09T17:05:40.220Z,17.60
2024-05-09T17:08:08.359Z,17.50
2024-05-09T17:10:38.608Z,17.50
2024-05-09T17:13:07.391Z,17.40
2024-05-09T17:15:37.127Z,17.50
2024-05-09T17:18:05.505Z,17.40
2024-05-09T17:20:35.774Z,17.30
2024-05-09T17:23:06.115Z,17.20
2024-05-09T17:25:34.274Z,17.20
2024-05-09T17:28:08.310Z,17.10
2024-05-09T17:30:38.773Z,17.10
2024-05-09T17:33:09.620Z,17.10
2024-05-09T17:35:38.250Z,17.00
2024-05-09T17:38:06.522Z,16.90
2024-05-09T17:40:36.487Z,16.90
2024-05-09T17:43:06.946Z,16.80
2024-05-09T17:45:37.869Z,16.70
2024-05-09T17:48:05.908Z,16.80
2024-05-09T17:50:36.087Z,16.90
2024-05-09T17:53:08.209Z,16.80
2024-05-09T17:55:36.217Z,16.80
2024-05-09T17:58:04.838Z,16.90
2024-05-09T18:00:38.214Z,16.80
2024-05-09T18:03:11.020Z,16.80
2024-05-09T18:05:38.973Z,16.80
2024-05-09T18:08:07.174Z,16.90
2024-05-09T18:10:38.094Z,16.90
2024-05-09T18:13:11.509Z,17.00
2024-05-09T18:15:39.643Z,17.00
2024-05-09T18:18:07.855Z,17.00
2024-05-09T18:20:42.918Z,17.00
2024-05-09T18:23:15.707Z,17.00
2024-05-09T18:25:44.335Z,16.90
2024-05-09T18:28:11.635Z,16.80
2024-05-09T18:30:40.225Z,16.60
2024-05-09T18:33:10.372Z,16.40
2024-05-09T18:35:38.027Z,16.30
2024-05-09T18:38:05.780Z,16.20
2024-05-09T18:40:36.945Z,16.20
2024-05-09T18:43:07.986Z,16.10
2024-05-09T18:45:37.803Z,16.00
2024-05-09T18:48:06.692Z,16.10
2024-05-09T18:50:37.954Z,16.20
2024-05-09T18:53:08.328Z,16.20
2024-05-09T18:55:35.916Z,16.40
2024-05-09T18:58:04.688Z,16.40
2024-05-09T19:00:36.239Z,16.20
2024-05-09T19:03:12.214Z,16.20
2024-05-09T19:05:43.230Z,16.00
2024-05-09T19:08:11.710Z,15.90
2024-05-09T19:10:39.437Z,15.90
2024-05-09T19:13:11.557Z,15.80
2024-05-09T19:15:41.113Z,15.60
2024-05-09T19:18:09.872Z,15.60
2024-05-09T19:20:41.093Z,15.70
2024-05-09T19:30:09.372Z,15.70
2024-05-09T19:32:43.672Z,15.60
2024-05-09T19:35:10.855Z,15.50
2024-05-09T19:37:37.976Z,15.50
2024-05-09T19:40:08.412Z,15.50
2024-05-09T19:42:37.597Z,15.50
2024-05-09T19:45:05.359Z,15.50
2024-05-09T19:47:32.501Z,15.40
2024-05-09T19:49:59.800Z,15.40
2024-05-09T19:52:26.984Z,15.40
2024-05-09T19:54:54.106Z,15.30
2024-05-09T19:57:21.287Z,15.20
2024-05-09T19:59:48.377Z,15.10
2024-05-09T20:02:17.615Z,15.10
2024-05-09T20:04:45.979Z,15.00
2024-05-09T20:07:13.434Z,14.90
2024-05-09T20:09:40.636Z,14.90
2024-05-09T20:12:09.455Z,14.90
2024-05-09T20:14:36.554Z,14.80
2024-05-09T20:17:03.725Z,14.70
2024-05-09T20:19:31.002Z,14.60
2024-05-09T20:21:58.193Z,14.60
2024-05-09T20:24:25.667Z,14.50
2024-05-09T20:26:52.774Z,14.50
2024-05-09T20:29:21.041Z,14.50
2024-05-09T20:31:48.112Z,14.50
2024-05-09T20:34:15.367Z,14.60
2024-05-09T20:36:42.539Z,14.50
2024-05-09T20:39:09.652Z,14.40
2024-05-09T20:41:43.072Z,14.40
2024-05-09T20:44:10.450Z,14.30
2024-05-09T20:46:37.494Z,14.30
2024-05-09T20:49:04.916Z,14.30
2024-05-09T20:51:32.094Z,14.20
2024-05-09T20:53:59.171Z,14.10
2024-05-09T20:56:26.322Z,14.00
2024-05-09T20:58:53.388Z,14.10
2024-05-09T21:01:20.588Z,14.00
2024-05-09T21:03:48.698Z,14.10
2024-05-09T21:06:15.895Z,14.10
2024-05-09T21:08:43.002Z,14.10
2024-05-09T21:11:10.240Z,14.10
2024-05-09T21:13:37.258Z,14.00
2024-05-09T21:16:05.385Z,14.10
2024-05-09T21:18:32.617Z,14.00
2024-05-09T21:20:59.909Z,14.10
2024-05-09T21:23:26.969Z,14.10
2024-05-09T21:25:54.158Z,14.10
2024-05-09T21:28:21.286Z,14.10
2024-05-09T21:30:48.611Z,14.10
2024-05-09T21:33:16.034Z,14.00
2024-05-09T21:35:44.511Z,14.00
2024-05-09T21:38:14.102Z,14.00
2024-05-09T21:40:42.034Z,14.00
2024-05-09T21:43:09.501Z,13.90
2024-05-09T21:45:37.412Z,13.90
2024-05-09T21:48:06.264Z,13.90
2024-05-09T21:50:39.884Z,13.80
2024-05-09T21:53:09.971Z,13.80
2024-05-09T21:55:37.228Z,13.80
2024-05-09T21:58:04.573Z,13.70
2024-05-09T22:00:36.607Z,13.80
2024-05-09T22:03:07.099Z,13.80
2024-05-09T22:05:35.508Z,13.80
2024-05-09T22:08:02.724Z,13.90
2024-05-09T22:10:34.487Z,13.80
2024-05-09T22:13:06.818Z,13.80
2024-05-09T22:15:39.492Z,13.70
2024-05-09T22:18:09.027Z,13.70
2024-05-09T22:20:39.404Z,13.70
2024-05-09T22:23:08.199Z,13.60
2024-05-09T22:25:36.811Z,13.60
2024-05-09T22:28:04.879Z,13.60
2024-05-09T22:30:37.131Z,13.60
2024-05-09T22:33:11.583Z,13.50
2024-05-09T22:35:40.774Z,13.50
2024-05-09T22:38:08.112Z,13.40
2024-05-09T22:43:05.660Z,13.40
2024-05-09T22:45:33.040Z,13.30
2024-05-09T22:48:00.565Z,13.30
2024-05-09T22:50:32.835Z,13.30
2024-05-09T22:53:01.203Z,13.30
2024-05-09T22:55:28.441Z,13.30
2024-05-09T22:57:55.933Z,13.30
2024-05-09T23:00:31.083Z,13.20
2024-05-09T23:03:03.033Z,13.30
2024-05-09T23:05:32.489Z,13.30
2024-05-09T23:08:01.301Z,13.20
2024-05-09T23:10:35.488Z,13.20
2024-05-09T23:13:05.880Z,13.20
2024-05-09T23:15:33.329Z,13.20
2024-05-09T23:18:00.607Z,13.00
2024-05-09T23:20:36.213Z,13.00
2024-05-09T23:23:10.999Z,13.10
2024-05-09T23:25:41.123Z,13.10
2024-05-09T23:28:08.658Z,13.10
2024-05-09T23:30:39.084Z,13.10
2024-05-09T23:33:10.103Z,13.20
2024-05-09T23:35:37.594Z,13.10
2024-05-09T23:38:05.305Z,13.00
2024-05-09T23:43:03.434Z,13.10
2024-05-09T23:45:31.038Z,13.10
2024-05-09T23:47:58.202Z,13.10
2024-05-09T23:50:33.565Z,13.00
2024-05-09T23:53:03.740Z,13.10
2024-05-09T23:55:31.812Z,13.10
2024-05-09T23:57:59.390Z,13.00
